Time;durP1;ratioP1;P1;durP2;ratioP2;P2;SDS_P1;SDS_P2;PMS_P1;PMS_P2;Temp;Humidity;BMP_temperature;BMP_pressure;BME280_temperature;BME280_humidity;BME280_pressure;Samples;Min_cycle;Max_cycle;Signal;HPM_P1;HPM_P2
2023/08/09 00:00:43;;;;;;;5.00;4.20;;;17.80;99.90;;;;;;4838184;29;20232;-94
2023/08/09 00:03:11;;;;;;;4.83;4.37;;;17.70;99.90;;;;;;4837474;29;20189;-94
2023/08/09 00:05:37;;;;;;;5.87;4.60;;;17.70;99.90;;;;;;4843657;29;20496;-94
2023/08/09 00:08:03;;;;;;;4.73;4.23;;;17.70;99.90;;;;;;4837053;29;20641;-93
2023/08/09 00:10:29;;;;;;;5.37;4.40;;;17.60;99.90;;;;;;4836710;29;20212;-93
2023/08/09 00:12:55;;;;;;;6.00;4.60;;;17.70;99.90;;;;;;4836944;29;20931;-94
2023/08/09 00:15:21;;;;;;;8.40;4.00;;;17.60;99.90;;;;;;4836365;29;20568;-94
2023/08/09 00:17:47;;;;;;;5.57;4.60;;;17.60;99.90;;;;;;4838584;29;20194;-93
2023/08/09 00:20:12;;;;;;;5.73;4.57;;;17.60;99.90;;;;;;4836998;29;20764;-92
2023/08/09 00:22:40;;;;;;;5.13;4.30;;;17.60;99.90;;;;;;4838133;29;20561;-94
2023/08/09 00:25:07;;;;;;;7.17;4.30;;;17.60;99.90;;;;;;4839729;29;20308;-94
2023/08/09 00:27:33;;;;;;;5.53;4.80;;;17.60;99.90;;;;;;4837121;29;20422;-94
2023/08/09 00:29:58;;;;;;;4.13;3.73;;;17.50;99.90;;;;;;4837340;29;20981;-94
2023/08/09 00:32:24;;;;;;;5.17;4.20;;;17.50;99.90;;;;;;4838801;29;20204;-93
2023/08/09 00:34:51;;;;;;;5.50;4.40;;;17.50;99.90;;;;;;4838122;29;20630;-93
2023/08/09 00:37:16;;;;;;;6.20;3.90;;;17.50;99.90;;;;;;4838795;29;20499;-93
2023/08/09 00:39:42;;;;;;;6.27;4.47;;;17.50;99.90;;;;;;4836142;29;20453;-93
2023/08/09 00:42:08;;;;;;;5.10;3.90;;;17.50;99.90;;;;;;4836783;29;20185;-93
2023/08/09 00:44:34;;;;;;;6.00;4.83;;;17.50;99.90;;;;;;4835869;29;20455;-95
2023/08/09 00:47:00;;;;;;;4.43;4.00;;;17.40;99.90;;;;;;4836598;29;20224;-92
2023/08/09 00:49:27;;;;;;;4.90;3.40;;;17.40;99.90;;;;;;4837301;29;20366;-94
2023/08/09 00:51:53;;;;;;;5.97;4.40;;;17.40;99.90;;;;;;4837923;29;20777;-94
2023/08/09 00:54:19;;;;;;;3.97;3.60;;;17.30;99.90;;;;;;4837481;29;20429;-94
2023/08/09 00:56:46;;;;;;;5.30;4.80;;;17.30;99.90;;;;;;4837781;29;20425;-93
2023/08/09 00:59:12;;;;;;;5.13;3.87;;;17.30;99.90;;;;;;4836079;29;20439;-94
2023/08/09 01:01:39;;;;;;;5.13;4.10;;;17.30;99.90;;;;;;4837019;29;20432;-94
2023/08/09 01:04:05;;;;;;;5.13;3.50;;;17.30;99.90;;;;;;4837336;29;20567;-93
2023/08/09 01:06:59;;;;;;;4.20;3.40;;;17.20;99.90;;;;;;4838272;29;20488;-94
2023/08/09 01:09:40;;;;;;;5.63;4.13;;;17.20;99.90;;;;;;4846003;29;20444;-94
2023/08/09 01:12:19;;;;;;;4.30;3.90;;;17.20;99.90;;;;;;4845905;29;20750;-94
2023/08/09 01:14:50;;;;;;;4.60;4.20;;;17.20;99.90;;;;;;4841288;29;20447;-94
2023/08/09 01:17:17;;;;;;;5.90;4.43;;;17.10;99.90;;;;;;4849133;29;20855;-92
2023/08/09 01:19:53;;;;;;;6.43;4.00;;;17.10;99.90;;;;;;4838349;29;20452;-94
2023/08/09 01:22:59;;;;;;;4.50;3.87;;;17.10;99.90;;;;;;4835451;29;20471;-94
2023/08/09 01:25:25;;;;;;;4.30;3.90;;;17.00;99.90;;;;;;4837174;29;20777;-94
2023/08/09 01:27:52;;;;;;;12.70;4.17;;;17.00;99.90;;;;;;4837665;29;20770;-93
2023/08/09 01:30:18;;;;;;;4.90;3.90;;;17.00;99.90;;;;;;4837734;29;20523;-94
2023/08/09 01:32:44;;;;;;;6.13;3.70;;;16.90;99.90;;;;;;4839672;29;20424;-94
2023/08/09 01:35:11;;;;;;;5.20;4.70;;;16.90;99.90;;;;;;4839109;29;20513;-94
2023/08/09 01:38:10;;;;;;;4.27;3.87;;;16.90;99.90;;;;;;4839893;29;20280;-94
2023/08/09 01:40:38;;;;;;;4.53;4.03;;;16.90;99.90;;;;;;4840932;29;20449;-94
2023/08/09 01:43:04;;;;;;;7.10;4.37;;;16.90;99.90;;;;;;4839451;29;20958;-94
2023/08/09 01:45:31;;;;;;;4.27;3.87;;;16.90;99.90;;;;;;4839171;29;20492;-94
2023/08/09 01:47:57;;;;;;;9.57;4.07;;;16.90;99.90;;;;;;4839414;29;20420;-94
2023/08/09 01:50:25;;;;;;;5.80;4.17;;;16.90;99.90;;;;;;4839426;29;20479;-94
2023/08/09 01:52:55;;;;;;;5.13;4.63;;;16.80;99.90;;;;;;4839764;29;20709;-94
2023/08/09 01:55:22;;;;;;;5.67;4.20;;;16.70;99.90;;;;;;4838799;29;20456;-94
2023/08/09 01:57:48;;;;;;;6.53;4.13;;;16.70;99.90;;;;;;4838958;29;20424;-94
2023/08/09 02:00:19;;;;;;;4.20;3.90;;;16.70;99.90;;;;;;4839385;29;20460;-93
2023/08/09 02:02:49;;;;;;;5.87;4.37;;;16.70;99.90;;;;;;4839524;29;20428;-94
2023/08/09 02:05:15;;;;;;;5.10;4.40;;;16.70;99.90;;;;;;4839840;29;20503;-93
2023/08/09 02:07:41;;;;;;;5.20;4.50;;;16.60;99.90;;;;;;4840331;29;20409;-94
2023/08/09 02:10:08;;;;;;;4.63;4.07;;;16.60;99.90;;;;;;4838702;29;20455;-94
2023/08/09 02:12:34;;;;;;;5.27;4.77;;;16.50;99.90;;;;;;4839239;29;21113;-94
2023/08/09 02:14:59;;;;;;;4.90;4.50;;;16.40;99.90;;;;;;4843313;29;20484;-94
2023/08/09 02:17:25;;;;;;;7.13;4.50;;;16.40;99.90;;;;;;4839213;29;20475;-94
2023/08/09 02:19:53;;;;;;;6.53;4.80;;;16.40;99.90;;;;;;4838329;29;20213;-93
2023/08/09 02:22:19;;;;;;;6.13;4.60;;;16.40;99.90;;;;;;4838045;29;20769;-94
2023/08/09 02:24:45;;;;;;;4.83;4.40;;;16.40;99.90;;;;;;4838054;29;20738;-93
2023/08/09 02:27:12;;;;;;;5.50;5.00;;;16.40;99.90;;;;;;4840428;29;20406;-93
2023/08/09 02:29:38;;;;;;;7.00;5.40;;;16.40;99.90;;;;;;4839259;29;20986;-94
2023/08/09 02:32:04;;;;;;;6.00;5.37;;;16.40;99.90;;;;;;4838493;29;20500;-94
2023/08/09 02:34:30;;;;;;;5.53;5.03;;;16.40;99.90;;;;;;4838066;29;20685;-95
2023/08/09 02:36:56;;;;;;;8.50;5.63;;;16.30;99.90;;;;;;4838615;29;20417;-94
2023/08/09 02:39:22;;;;;;;6.23;5.47;;;16.30;99.90;;;;;;4839388;29;20442;-93
2023/08/09 02:41:48;;;;;;;6.87;5.80;;;16.30;99.90;;;;;;4840456;29;20647;-94
2023/08/09 02:44:14;;;;;;;6.40;5.80;;;16.30;99.90;;;;;;4839433;29;20849;-94
2023/08/09 02:46:40;;;;;;;8.07;6.00;;;16.30;99.90;;;;;;4839899;29;20690;-93
2023/08/09 02:49:06;;;;;;;8.43;5.90;;;16.30;99.90;;;;;;4840345;29;20818;-94
2023/08/09 02:51:32;;;;;;;5.03;4.63;;;16.20;99.90;;;;;;4838761;29;20215;-94
2023/08/09 02:54:02;;;;;;;6.43;5.70;;;16.20;99.90;;;;;;4837830;29;20277;-94
2023/08/09 02:56:29;;;;;;;7.40;6.70;;;16.30;99.90;;;;;;4838117;29;20452;-94
2023/08/09 02:58:55;;;;;;;7.10;6.37;;;16.30;99.90;;;;;;4838009;29;20646;-93
2023/08/09 03:01:24;;;;;;;7.00;6.20;;;16.40;99.90;;;;;;4838838;29;20448;-94
2023/08/09 03:03:54;;;;;;;6.23;5.70;;;16.50;99.90;;;;;;4838239;29;20427;-94
2023/08/09 03:06:23;;;;;;;7.30;6.60;;;16.60;99.90;;;;;;4840360;29;20644;-93
2023/08/09 03:08:49;;;;;;;7.00;6.10;;;16.70;99.90;;;;;;4838542;29;21028;-94
2023/08/09 03:11:16;;;;;;;6.40;5.90;;;16.90;99.90;;;;;;4842984;29;20456;-93
2023/08/09 03:13:42;;;;;;;;;;;16.90;99.90;;;;;;4838944;29;19982;-95
2023/08/09 03:16:08;;;;;;;;;;;17.00;99.90;;;;;;4837521;29;20169;-94
2023/08/09 03:18:33;;;;;;;8.17;7.47;;;17.10;99.90;;;;;;4838905;29;20047;-94
2023/08/09 03:20:59;;;;;;;8.00;7.20;;;17.10;99.90;;;;;;4838534;29;20389;-94
2023/08/09 03:23:25;;;;;;;8.20;7.37;;;17.20;99.90;;;;;;4836956;29;20466;-93
2023/08/09 03:25:50;;;;;;;7.47;6.73;;;17.30;99.90;;;;;;4837167;29;20232;-93
2023/08/09 03:28:16;;;;;;;9.33;6.80;;;17.30;99.90;;;;;;4838933;29;20236;-94
2023/08/09 03:30:42;;;;;;;6.17;5.57;;;17.30;99.90;;;;;;4837089;29;20276;-94
2023/08/09 03:33:08;;;;;;;6.27;5.67;;;17.30;99.90;;;;;;4836936;29;20216;-93
2023/08/09 03:35:34;;;;;;;7.03;6.00;;;17.40;99.90;;;;;;4836123;29;20484;-93
2023/08/09 03:38:00;;;;;;;10.83;6.47;;;17.40;99.90;;;;;;4838291;29;20508;-94
2023/08/09 03:40:25;;;;;;;9.27;5.60;;;17.40;99.90;;;;;;4836464;29;20266;-94
2023/08/09 03:42:51;;;;;;;10.20;6.80;;;17.30;99.90;;;;;;4838222;29;20408;-92
2023/08/09 03:45:17;;;;;;;9.27;6.23;;;17.20;99.90;;;;;;4836949;29;20678;-93
2023/08/09 03:47:43;;;;;;;6.70;5.83;;;17.10;99.90;;;;;;4838376;29;20431;-93
2023/08/09 03:50:10;;;;;;;7.40;6.60;;;17.10;99.90;;;;;;4835088;29;20484;-94
2023/08/09 03:52:36;;;;;;;8.27;6.50;;;17.10;99.90;;;;;;4836466;29;20989;-93
2023/08/09 03:55:05;;;;;;;9.17;6.03;;;17.10;99.90;;;;;;4835055;29;20725;-93
2023/08/09 03:57:30;;;;;;;7.77;6.27;;;17.10;99.90;;;;;;4836171;29;20441;-94
2023/08/09 03:59:57;;;;;;;7.70;6.63;;;17.00;99.90;;;;;;4835597;29;20441;-94
2023/08/09 04:02:23;;;;;;;9.30;6.70;;;17.00;99.90;;;;;;4834278;29;20436;-94
2023/08/09 04:04:49;;;;;;;7.20;6.50;;;16.90;99.90;;;;;;4836548;29;20204;-93
2023/08/09 04:07:14;;;;;;;13.40;6.73;;;16.90;99.90;;;;;;4837568;29;20181;-92
2023/08/09 04:09:40;;;;;;;7.50;6.70;;;16.90;99.90;;;;;;4837253;29;20212;-94
2023/08/09 04:12:07;;;;;;;7.63;6.93;;;16.90;99.90;;;;;;4836849;29;20196;-94
2023/08/09 04:14:33;;;;;;;7.97;7.27;;;16.80;99.90;;;;;;4836235;29;20468;-94
2023/08/09 04:16:58;;;;;;;10.20;7.70;;;16.80;99.90;;;;;;4839225;29;21142;-94
2023/08/09 04:19:26;;;;;;;12.83;8.20;;;16.80;99.90;;;;;;4837880;29;20551;-94
2023/08/09 04:21:52;;;;;;;9.07;7.40;;;16.80;99.90;;;;;;4838835;29;20196;-94
2023/08/09 04:24:19;;;;;;;133.43;91.17;;;16.90;99.90;;;;;;4849071;29;20440;-94
2023/08/09 04:26:45;;;;;;;14.23;11.73;;;16.90;99.90;;;;;;4840045;29;20966;-93
2023/08/09 04:29:11;;;;;;;11.70;8.93;;;17.00;99.90;;;;;;4845220;29;20497;-93
2023/08/09 04:31:37;;;;;;;12.50;8.27;;;17.00;99.90;;;;;;4837014;29;20592;-94
2023/08/09 04:34:03;;;;;;;8.83;8.00;;;17.00;99.90;;;;;;4828908;29;20189;-94
2023/08/09 04:36:31;;;;;;;8.67;7.87;;;17.00;99.90;;;;;;4825444;29;20743;-94
2023/08/09 04:38:57;;;;;;;11.87;8.00;;;17.00;99.90;;;;;;4829137;29;20456;-94
2023/08/09 04:41:24;;;;;;;8.50;7.70;;;17.00;99.90;;;;;;4827400;29;20820;-94
2023/08/09 04:43:50;;;;;;;10.30;8.40;;;17.10;99.90;;;;;;4859353;29;20511;-94
2023/08/09 04:46:16;;;;;;;11.73;7.77;;;17.10;99.90;;;;;;4830242;29;20985;-95
2023/08/09 04:48:43;;;;;;;11.67;7.77;;;17.10;99.90;;;;;;4859310;29;20662;-94
2023/08/09 04:51:09;;;;;;;13.00;8.00;;;17.20;99.90;;;;;;4827226;29;20477;-94
2023/08/09 04:53:35;;;;;;;9.83;8.83;;;17.20;99.90;;;;;;4831417;29;20494;-93
2023/08/09 04:56:03;;;;;;;10.90;8.70;;;17.20;99.90;;;;;;4827838;29;20517;-94
2023/08/09 04:58:29;;;;;;;14.10;8.60;;;17.30;99.90;;;;;;4831600;29;20480;-94
2023/08/09 05:00:55;;;;;;;10.80;8.50;;;17.40;99.90;;;;;;4829246;29;20473;-95
2023/08/09 05:03:21;;;;;;;14.70;8.20;;;17.50;99.90;;;;;;4828163;29;20433;-94
2023/08/09 05:05:47;;;;;;;7.70;6.90;;;17.60;99.90;;;;;;4828504;29;20489;-94
2023/08/09 05:08:13;;;;;;;9.77;7.20;;;17.60;99.90;;;;;;4831347;29;20750;-94
2023/08/09 05:10:38;;;;;;;8.40;5.63;;;17.70;99.90;;;;;;4830844;29;20448;-95
2023/08/09 05:13:04;;;;;;;6.30;5.70;;;17.80;99.90;;;;;;4830854;29;20174;-94
2023/08/09 05:15:30;;;;;;;9.70;6.30;;;17.90;99.90;;;;;;4831596;29;20233;-94
2023/08/09 05:17:55;;;;;;;5.93;5.43;;;17.90;99.90;;;;;;4842451;29;20192;-94
2023/08/09 05:20:21;;;;;;;6.70;6.03;;;18.00;99.90;;;;;;4831235;29;20649;-94
2023/08/09 05:22:48;;;;;;;6.30;5.50;;;18.10;99.90;;;;;;4832094;29;20263;-94
2023/08/09 05:25:14;;;;;;;5.80;5.00;;;18.20;99.90;;;;;;4830864;29;20326;-94
2023/08/09 05:27:40;;;;;;;5.30;4.77;;;18.30;99.90;;;;;;4834441;29;21156;-94
2023/08/09 05:30:06;;;;;;;5.13;4.63;;;18.40;99.90;;;;;;4832573;29;20234;-94
2023/08/09 05:32:32;;;;;;;5.43;4.67;;;18.50;99.90;;;;;;4830423;29;20202;-94
2023/08/09 05:34:57;;;;;;;5.37;4.50;;;18.60;99.90;;;;;;4827205;29;20463;-94
2023/08/09 05:37:23;;;;;;;9.77;5.40;;;18.70;99.90;;;;;;4829856;29;20180;-93
2023/08/09 05:39:50;;;;;;;7.80;5.37;;;18.80;99.90;;;;;;4855784;29;20234;-95
2023/08/09 05:42:15;;;;;;;6.00;4.43;;;18.90;99.90;;;;;;4831688;29;20206;-94
2023/08/09 05:44:41;;;;;;;5.87;4.50;;;19.00;99.90;;;;;;4829998;29;20557;-94
2023/08/09 05:47:07;;;;;;;4.63;4.23;;;19.00;99.90;;;;;;4832957;29;20231;-94
2023/08/09 05:49:33;;;;;;;6.07;4.60;;;19.10;99.90;;;;;;4822636;29;20220;-94
2023/08/09 05:51:59;;;;;;;5.27;4.40;;;19.20;99.90;;;;;;4823945;29;20659;-94
2023/08/09 05:54:25;;;;;;;4.17;3.77;;;19.30;99.90;;;;;;4816878;29;20458;-94
2023/08/09 05:56:51;;;;;;;4.47;4.07;;;19.40;99.90;;;;;;4827318;29;20192;-94
2023/08/09 05:59:16;;;;;;;4.47;3.87;;;19.50;99.90;;;;;;4835758;29;21066;-94
2023/08/09 06:01:42;;;;;;;6.93;3.57;;;19.60;99.90;;;;;;4837673;29;20653;-95
2023/08/09 06:04:08;;;;;;;5.10;3.13;;;19.70;99.90;;;;;;4831558;29;20203;-95
2023/08/09 06:06:34;;;;;;;4.87;3.20;;;19.80;99.90;;;;;;4832560;29;20578;-95
2023/08/09 06:09:00;;;;;;;3.67;3.30;;;19.90;99.90;;;;;;4828260;29;20493;-94
2023/08/09 06:11:26;;;;;;;3.60;3.30;;;20.00;99.90;;;;;;4831356;29;20236;-92
2023/08/09 06:13:51;;;;;;;8.53;3.23;;;20.20;99.90;;;;;;4832738;29;20456;-95
2023/08/09 06:16:17;;;;;;;4.30;3.20;;;20.30;99.90;;;;;;4834992;29;20528;-95
2023/08/09 06:18:43;;;;;;;4.27;3.30;;;20.40;99.90;;;;;;4837534;29;20215;-96
2023/08/09 06:21:09;;;;;;;5.33;3.40;;;20.60;99.90;;;;;;4832213;29;20269;-95
2023/08/09 06:23:34;;;;;;;3.90;3.50;;;20.70;99.90;;;;;;4838107;29;20807;-95
2023/08/09 06:26:00;;;;;;;5.80;3.10;;;20.80;99.90;;;;;;4832540;29;20575;-95
2023/08/09 06:28:26;;;;;;;4.80;3.33;;;21.00;99.90;;;;;;4830105;29;20290;-94
2023/08/09 06:30:52;;;;;;;3.77;3.37;;;21.10;99.90;;;;;;4834911;29;20204;-95
2023/08/09 06:33:18;;;;;;;7.77;3.40;;;21.20;99.90;;;;;;4834033;29;20421;-94
2023/08/09 06:35:43;;;;;;;2.60;2.20;;;21.40;99.90;;;;;;4833076;29;20236;-94
2023/08/09 06:38:09;;;;;;;3.63;2.40;;;21.50;99.90;;;;;;4833679;29;20425;-95
2023/08/09 06:40:35;;;;;;;2.30;2.10;;;21.60;99.90;;;;;;4833624;29;20868;-95
2023/08/09 06:43:01;;;;;;;5.30;2.50;;;21.80;99.90;;;;;;4833653;29;20198;-95
2023/08/09 06:45:26;;;;;;;2.27;2.10;;;21.90;99.90;;;;;;4834663;29;20761;-95
2023/08/09 06:47:52;;;;;;;2.33;2.13;;;22.00;99.90;;;;;;4842391;29;20172;-95
2023/08/09 06:50:18;;;;;;;2.30;2.10;;;22.10;99.90;;;;;;4839184;29;20435;-95
2023/08/09 06:52:44;;;;;;;2.10;2.00;;;22.20;99.90;;;;;;4836344;29;20194;-94
2023/08/09 06:55:10;;;;;;;3.10;2.00;;;22.20;99.90;;;;;;4839858;29;20213;-96
2023/08/09 06:57:35;;;;;;;2.73;2.30;;;22.30;99.90;;;;;;4850926;29;20201;-95
2023/08/09 07:00:03;;;;;;;8.40;2.50;;;22.40;99.90;;;;;;4836260;29;20459;-96
2023/08/09 07:02:30;;;;;;;2.37;2.17;;;22.40;99.90;;;;;;4838036;29;20243;-94
2023/08/09 07:05:01;;;;;;;4.30;2.73;;;22.50;99.90;;;;;;4838078;29;20469;-95
2023/08/09 07:07:26;;;;;;;2.60;2.40;;;22.60;99.90;;;;;;4835226;29;20458;-95
2023/08/09 07:09:52;;;;;;;2.40;2.20;;;22.60;99.90;;;;;;4836685;29;20559;-94
2023/08/09 07:12:21;;;;;;;2.50;2.30;;;22.70;99.90;;;;;;4832379;29;20555;-93
2023/08/09 07:14:47;;;;;;;3.83;2.57;;;22.80;99.90;;;;;;4829613;29;20232;-95
2023/08/09 07:17:13;;;;;;;5.93;2.70;;;22.80;99.90;;;;;;4832315;29;23346;-94
2023/08/09 07:19:39;;;;;;;2.37;2.10;;;22.90;99.90;;;;;;4830328;29;20482;-95
2023/08/09 07:22:05;;;;;;;4.70;1.97;;;22.90;99.90;;;;;;4832850;29;20738;-94
2023/08/09 07:24:31;;;;;;;2.70;2.17;;;23.00;99.90;;;;;;4844315;29;20513;-95
2023/08/09 07:26:57;;;;;;;4.93;2.70;;;23.00;99.90;;;;;;4823236;29;21162;-95
2023/08/09 07:29:22;;;;;;;2.30;1.70;;;23.10;99.90;;;;;;4817090;29;20254;-94
2023/08/09 07:31:48;;;;;;;5.00;2.07;;;23.20;99.90;;;;;;4831419;29;20553;-92
2023/08/09 07:34:14;;;;;;;2.43;2.23;;;23.20;99.90;;;;;;4832675;29;20187;-95
2023/08/09 07:36:40;;;;;;;2.90;2.30;;;23.30;99.90;;;;;;4832540;29;20242;-94
2023/08/09 07:39:09;;;;;;;4.20;2.50;;;23.40;99.90;;;;;;4826029;29;20420;-95
2023/08/09 07:41:35;;;;;;;80.00;47.00;;;23.50;99.90;;;;;;4828353;29;20442;-94
2023/08/09 07:44:01;;;;;;;4.63;3.63;;;23.50;99.90;;;;;;4833252;29;20453;-95
2023/08/09 07:46:27;;;;;;;2.27;2.07;;;23.60;99.90;;;;;;4831558;29;20491;-95
2023/08/09 07:48:54;;;;;;;3.30;2.37;;;23.60;99.90;;;;;;4826908;29;20983;-95
2023/08/09 07:51:21;;;;;;;3.90;2.53;;;23.60;99.90;;;;;;4835486;29;20426;-94
2023/08/09 07:53:46;;;;;;;2.67;2.47;;;23.60;99.90;;;;;;4825937;29;20420;-94
2023/08/09 07:56:13;;;;;;;2.67;2.00;;;23.70;99.90;;;;;;4828521;29;20467;-95
2023/08/09 07:58:39;;;;;;;2.17;2.00;;;23.80;99.90;;;;;;4830682;29;20748;-94
2023/08/09 08:01:05;;;;;;;3.00;2.17;;;23.80;99.90;;;;;;4829517;29;20475;-94
2023/08/09 08:03:31;;;;;;;3.00;2.13;;;24.00;99.90;;;;;;4823924;29;20444;-93
2023/08/09 08:05:57;;;;;;;2.87;2.40;;;24.00;99.40;;;;;;4823420;29;20246;-95
2023/08/09 08:08:24;;;;;;;2.40;2.20;;;24.00;98.90;;;;;;4837587;29;20840;-94
2023/08/09 08:10:49;;;;;;;2.40;2.10;;;24.00;99.10;;;;;;4840075;29;20532;-94
2023/08/09 08:13:18;;;;;;;2.80;2.03;;;24.10;98.70;;;;;;4830869;29;20510;-94
2023/08/09 08:15:43;;;;;;;3.10;2.43;;;24.10;98.90;;;;;;4825367;29;20240;-93
2023/08/09 08:18:09;;;;;;;2.20;1.93;;;24.10;98.40;;;;;;4828181;29;20441;-93
2023/08/09 08:20:35;;;;;;;2.20;1.90;;;24.20;98.50;;;;;;4820943;29;20208;-94
2023/08/09 08:23:06;;;;;;;3.37;2.00;;;24.20;98.70;;;;;;4825954;29;20299;-94
2023/08/09 08:25:34;;;;;;;2.60;2.40;;;24.20;98.60;;;;;;4831688;29;20227;-95
2023/08/09 08:28:00;;;;;;;2.43;2.03;;;24.30;98.80;;;;;;4828292;29;20955;-94
2023/08/09 08:30:26;;;;;;;2.50;2.30;;;24.30;98.30;;;;;;4828925;29;20468;-95
2023/08/09 08:32:52;;;;;;;2.90;2.70;;;24.40;97.60;;;;;;4819939;29;20972;-94
2023/08/09 08:35:21;;;;;;;2.60;2.17;;;24.50;98.10;;;;;;4832350;29;20219;-94
2023/08/09 08:37:53;;;;;;;3.00;2.37;;;24.60;98.10;;;;;;4827909;29;20246;-95
2023/08/09 08:40:20;;;;;;;5.13;2.20;;;24.60;98.30;;;;;;4832448;29;20464;-94
2023/08/09 08:42:47;;;;;;;3.53;2.40;;;24.70;97.30;;;;;;4831677;29;20789;-95
2023/08/09 08:45:15;;;;;;;3.80;2.70;;;24.70;98.00;;;;;;4829799;29;20467;-94
2023/08/09 08:47:42;;;;;;;2.10;2.00;;;24.80;98.40;;;;;;4827923;29;20449;-95
2023/08/09 08:50:10;;;;;;;2.27;2.07;;;24.90;96.80;;;;;;4830577;29;21141;-95
2023/08/09 08:52:45;;;;;;;2.50;2.30;;;24.90;96.60;;;;;;4831360;29;20421;-95
2023/08/09 08:55:12;;;;;;;3.00;2.70;;;25.00;96.70;;;;;;4844521;29;20838;-95
2023/08/09 08:57:39;;;;;;;2.73;2.03;;;25.10;96.20;;;;;;4831967;29;20873;-95
2023/08/09 09:00:16;;;;;;;5.60;1.77;;;25.20;95.90;;;;;;4830573;29;20845;-95
2023/08/09 09:02:46;;;;;;;3.47;2.20;;;25.20;96.30;;;;;;4833929;29;20693;-95
2023/08/09 09:05:13;;;;;;;2.90;1.90;;;25.30;94.80;;;;;;4826452;29;20476;-95
2023/08/09 09:07:41;;;;;;;2.37;2.00;;;25.30;95.10;;;;;;4830818;29;20440;-95
2023/08/09 09:10:12;;;;;;;3.37;2.10;;;25.40;95.70;;;;;;4831720;29;20891;-95
2023/08/09 09:12:39;;;;;;;2.40;2.10;;;25.40;95.10;;;;;;4825982;29;20432;-95
2023/08/09 09:15:06;;;;;;;2.00;1.90;;;25.50;94.90;;;;;;4849929;29;20507;-94
2023/08/09 09:17:39;;;;;;;4.00;2.20;;;25.50;94.90;;;;;;4830195;29;20490;-95
2023/08/09 09:20:10;;;;;;;2.10;1.90;;;25.50;94.10;;;;;;4822197;29;20470;-94
2023/08/09 09:22:36;;;;;;;2.57;2.37;;;25.60;93.70;;;;;;4826657;29;20464;-94
2023/08/09 09:25:09;;;;;;;2.10;1.90;;;25.60;93.80;;;;;;4831052;29;20472;-94
2023/08/09 09:27:34;;;;;;;6.10;2.00;;;25.70;94.10;;;;;;4832377;29;20456;-95
2023/08/09 09:30:11;;;;;;;2.60;1.87;;;25.70;92.80;;;;;;4828560;29;20817;-94
2023/08/09 09:32:54;;;;;;;2.63;2.17;;;25.70;92.40;;;;;;4823897;29;20177;-95
2023/08/09 09:35:28;;;;;;;2.70;2.40;;;25.60;93.40;;;;;;4834537;29;20468;-95
2023/08/09 09:37:58;;;;;;;4.50;2.20;;;25.70;93.70;;;;;;4836728;29;20447;-94
2023/08/09 09:40:30;;;;;;;3.97;2.40;;;25.80;92.80;;;;;;4832516;29;20482;-93
2023/08/09 09:42:57;;;;;;;3.40;1.83;;;25.80;93.10;;;;;;4832394;29;20634;-95
2023/08/09 09:45:25;;;;;;;2.93;2.40;;;25.80;93.30;;;;;;4827639;29;20549;-95
2023/08/09 09:47:56;;;;;;;3.43;2.27;;;25.80;93.00;;;;;;4828221;29;20544;-95
2023/08/09 09:50:24;;;;;;;2.50;2.30;;;25.90;93.30;;;;;;4828717;29;20634;-95
2023/08/09 09:52:50;;;;;;;2.10;1.90;;;25.90;93.70;;;;;;4831565;29;20509;-95
2023/08/09 09:55:19;;;;;;;2.43;2.20;;;25.90;92.20;;;;;;4833966;29;20474;-94
2023/08/09 09:57:45;;;;;;;2.03;1.93;;;25.90;93.70;;;;;;4833627;29;20435;-95
2023/08/09 10:00:14;;;;;;;2.53;2.17;;;26.00;91.80;;;;;;4834499;29;20461;-94
2023/08/09 10:02:47;;;;;;;2.63;1.90;;;26.00;91.80;;;;;;4835379;29;20436;-95
2023/08/09 10:05:24;;;;;;;2.33;2.13;;;26.00;91.90;;;;;;4837231;29;20467;-92
2023/08/09 10:07:52;;;;;;;2.90;2.00;;;26.00;92.20;;;;;;4836659;29;20970;-94
2023/08/09 10:10:19;;;;;;;2.00;1.80;;;26.00;91.50;;;;;;4836105;29;20464;-94
2023/08/09 10:12:51;;;;;;;6.83;5.30;;;26.00;91.00;;;;;;4839515;29;20526;-94
2023/08/09 10:15:23;;;;;;;2.00;1.90;;;26.00;94.60;;;;;;4840528;29;20524;-95
2023/08/09 10:17:52;;;;;;;2.20;2.00;;;26.00;91.20;;;;;;4836730;29;20500;-94
2023/08/09 10:20:20;;;;;;;2.33;2.13;;;26.00;90.90;;;;;;4836440;29;20866;-94
2023/08/09 10:22:48;;;;;;;2.10;1.90;;;26.10;91.10;;;;;;4835317;29;20412;-95
2023/08/09 10:25:14;;;;;;;2.80;1.90;;;26.10;90.90;;;;;;4834726;29;20536;-95
2023/08/09 10:27:51;;;;;;;4.60;2.20;;;26.10;90.40;;;;;;4833338;29;20445;-94
2023/08/09 10:30:19;;;;;;;1.57;1.40;;;26.10;90.80;;;;;;4833548;29;20665;-94
2023/08/09 10:33:02;;;;;;;2.90;2.57;;;26.20;91.20;;;;;;4833844;29;20433;-95
2023/08/09 10:35:45;;;;;;;2.77;2.50;;;26.20;90.50;;;;;;4832541;29;20529;-95
2023/08/09 10:38:40;;;;;;;2.23;1.80;;;26.20;90.50;;;;;;4835382;29;21030;-94
2023/08/09 10:41:11;;;;;;;2.40;2.20;;;26.20;90.40;;;;;;4804242;29;20469;-94
2023/08/09 10:43:38;;;;;;;2.60;2.40;;;26.20;89.80;;;;;;4835681;29;20425;-94
2023/08/09 10:46:25;;;;;;;2.93;1.90;;;26.20;90.30;;;;;;4830319;29;20477;-94
2023/08/09 10:48:54;;;;;;;3.70;1.77;;;26.20;89.80;;;;;;4859939;29;20432;-94
2023/08/09 10:51:21;;;;;;;2.30;1.90;;;26.30;90.50;;;;;;4829036;29;20473;-93
2023/08/09 10:53:58;;;;;;;3.00;2.20;;;26.30;90.30;;;;;;4828421;29;20497;-94
2023/08/09 10:56:44;;;;;;;2.00;1.90;;;26.30;88.90;;;;;;4834778;29;20503;-94
2023/08/09 10:59:21;;;;;;;3.17;1.90;;;26.40;89.70;;;;;;4828710;29;20521;-94
2023/08/09 11:01:49;;;;;;;2.30;2.00;;;26.40;89.10;;;;;;4833635;29;20465;-95
2023/08/09 11:04:17;;;;;;;4.10;2.13;;;26.40;89.80;;;;;;4858323;29;20433;-95
2023/08/09 11:06:44;;;;;;;2.10;1.90;;;26.40;88.70;;;;;;4830928;29;20518;-95
2023/08/09 11:09:17;;;;;;;2.67;1.93;;;26.40;89.00;;;;;;4816855;29;20487;-95
2023/08/09 11:11:45;;;;;;;16.03;2.10;;;26.40;88.10;;;;;;4822687;29;20429;-96
2023/08/09 11:14:13;;;;;;;1.87;1.77;;;26.50;89.20;;;;;;4822053;29;20417;-96
2023/08/09 11:16:39;;;;;;;2.17;1.97;;;26.50;89.40;;;;;;4825319;29;20559;-96
2023/08/09 11:19:14;;;;;;;2.93;1.80;;;26.50;87.60;;;;;;4858935;29;20684;-96
2023/08/09 11:21:50;;;;;;;2.87;1.83;;;26.50;88.50;;;;;;4826458;29;20525;-95
2023/08/09 11:24:18;;;;;;;1.83;1.70;;;26.50;88.30;;;;;;4823801;29;20447;-94
2023/08/09 11:26:55;;;;;;;2.10;1.90;;;26.60;89.10;;;;;;4849591;29;20511;-94
2023/08/09 11:29:23;;;;;;;2.73;1.93;;;26.60;89.20;;;;;;4851155;29;20677;-94
2023/08/09 11:31:51;;;;;;;1.60;1.47;;;26.60;87.10;;;;;;4862136;29;20915;-95
2023/08/09 11:34:22;;;;;;;2.80;2.30;;;26.50;87.50;;;;;;4845506;29;20803;-94
2023/08/09 11:36:49;;;;;;;2.30;2.10;;;26.50;88.80;;;;;;4836969;29;20480;-95
2023/08/09 11:39:16;;;;;;;2.03;1.90;;;26.50;87.30;;;;;;4829548;29;20536;-95
2023/08/09 11:41:42;;;;;;;2.50;2.30;;;26.40;86.50;;;;;;4826789;29;20429;-94
2023/08/09 11:44:09;;;;;;;4.00;2.70;;;26.40;85.40;;;;;;4833316;29;20519;-95
2023/08/09 11:46:35;;;;;;;2.67;2.20;;;26.50;86.50;;;;;;4822514;29;20512;-95
2023/08/09 11:49:04;;;;;;;2.70;1.90;;;26.50;87.80;;;;;;4817757;29;20429;-94
2023/08/09 11:51:33;;;;;;;2.43;2.10;;;26.50;86.70;;;;;;4821178;29;20495;-94
2023/08/09 11:53:59;;;;;;;2.00;1.80;;;26.50;84.40;;;;;;4817147;29;20449;-95
2023/08/09 11:56:33;;;;;;;2.33;2.13;;;26.60;85.20;;;;;;4829701;29;20531;-95
2023/08/09 11:59:01;;;;;;;2.03;1.60;;;26.60;84.60;;;;;;4822618;29;20480;-95
2023/08/09 12:01:29;;;;;;;1.70;1.57;;;26.70;84.30;;;;;;4829850;29;20521;-95
2023/08/09 12:03:59;;;;;;;1.80;1.70;;;26.60;82.20;;;;;;4832097;29;20429;-95
2023/08/09 12:07:05;;;;;;;2.37;1.80;;;26.60;85.70;;;;;;4832397;29;20480;-95
2023/08/09 12:09:37;;;;;;;2.80;2.10;;;26.70;85.20;;;;;;4837592;29;20548;-94
2023/08/09 12:12:07;;;;;;;4.63;1.90;;;26.70;84.80;;;;;;4833202;29;20429;-95
2023/08/09 12:14:36;;;;;;;3.33;1.97;;;26.80;84.40;;;;;;4828082;29;20663;-94
2023/08/09 12:17:02;;;;;;;2.03;1.70;;;26.80;83.80;;;;;;4831145;29;20831;-96
2023/08/09 12:19:28;;;;;;;2.00;1.70;;;26.80;84.80;;;;;;4830782;29;20449;-94
2023/08/09 12:21:54;;;;;;;1.77;1.67;;;26.80;84.10;;;;;;4824186;29;20642;-95
2023/08/09 12:24:20;;;;;;;1.90;1.67;;;26.80;84.90;;;;;;4824197;29;20446;-95
2023/08/09 12:26:46;;;;;;;2.80;2.17;;;26.80;84.10;;;;;;4840627;29;20582;-94
2023/08/09 12:29:12;;;;;;;2.57;1.77;;;26.80;83.50;;;;;;4819250;29;20193;-95
2023/08/09 12:31:38;;;;;;;2.27;1.87;;;26.80;82.60;;;;;;4816620;29;20250;-94
2023/08/09 12:34:04;;;;;;;2.70;1.53;;;26.90;83.70;;;;;;4831138;29;20554;-95
2023/08/09 12:36:30;;;;;;;4.93;2.13;;;26.90;82.80;;;;;;4827705;29;20468;-96
2023/08/09 12:38:57;;;;;;;2.03;1.90;;;27.00;83.40;;;;;;4823637;29;20445;-94
2023/08/09 12:41:23;;;;;;;1.77;1.67;;;27.00;84.00;;;;;;4832406;29;20449;-94
2023/08/09 12:43:50;;;;;;;2.90;2.30;;;27.00;83.50;;;;;;4833952;29;20513;-95
2023/08/09 12:46:16;;;;;;;3.00;1.77;;;27.10;83.50;;;;;;4834201;29;20488;-94
2023/08/09 12:48:42;;;;;;;3.73;2.30;;;27.10;83.60;;;;;;4833080;29;20796;-94